Time;durP1;ratioP1;P1;durP2;ratioP2;P2;SDS_P1;SDS_P2;PMS_P1;PMS_P2;Temp;Humidity;BMP_temperature;BMP_pressure;BME280_temperature;BME280_humidity;BME280_pressure;Samples;Min_cycle;Max_cycle;Signal;HPM_P1;HPM_P2
2024/03/22 06:02:05;;;;;;;39.23;19.27;;;;;;;;;;5199983;23;20518;-76
2024/03/22 06:04:31;;;;;;;38.93;19.23;;;;;;;;;;4959168;29;20786;-73
2024/03/22 06:06:59;;;;;;;47.63;18.63;;;;;;;;;;4953497;29;20416;-72
2024/03/22 06:09:34;;;;;;;53.27;20.33;;;;;;;;;;4955600;28;20903;-78
2024/03/22 06:12:02;;;;;;;39.80;17.97;;;;;;;;;;4957061;28;20472;-78
2024/03/22 06:14:28;;;;;;;51.23;22.67;;;;;;;;;;4955718;28;20436;-78
2024/03/22 06:16:54;;;;;;;34.77;16.83;;;;;;;;;;4954315;29;20416;-78
2024/03/22 06:19:19;;;;;;;45.37;18.30;;;;;;;;;;4954213;29;20413;-78
2024/03/22 06:21:45;;;;;;;46.27;20.93;;;;;;;;;;4954343;29;20472;-78
2024/03/22 06:24:11;;;;;;;38.33;16.73;;;;;;;;;;4954789;29;20408;-78
2024/03/22 06:26:37;;;;;;;35.53;18.07;;;;;;;;;;4954400;29;20412;-78
2024/03/22 06:29:03;;;;;;;36.50;17.43;;;;;;;;;;4943721;29;20443;-78
2024/03/22 06:31:29;;;;;;;43.73;16.63;;;;;;;;;;4955898;28;20475;-78
2024/03/22 06:34:01;;;;;;;35.60;15.47;;;;;;;;;;4952988;28;20468;-78
2024/03/22 06:36:27;;;;;;;35.13;16.77;;;;;;;;;;4953672;28;20505;-78
2024/03/22 06:38:53;;;;;;;33.53;15.63;;;;;;;;;;4951573;29;20769;-78
2024/03/22 06:41:19;;;;;;;31.20;17.63;;;;;;;;;;4953407;28;20827;-78
2024/03/22 06:43:46;;;;;;;32.80;15.43;;;;;;;;;;4954645;28;20584;-78
2024/03/22 06:46:11;;;;;;;35.90;17.13;;;;;;;;;;4953680;29;20470;-78
2024/03/22 06:48:37;;;;;;;36.03;18.30;;;;;;;;;;4954004;28;20852;-78
2024/03/22 06:51:03;;;;;;;28.33;16.00;;;;;;;;;;4953938;28;20927;-77
2024/03/22 06:53:29;;;;;;;36.90;15.90;;;;;;;;;;4954340;28;20843;-78
2024/03/22 06:55:55;;;;;;;34.00;17.87;;;;;;;;;;4954160;28;20483;-79
2024/03/22 06:58:21;;;;;;;34.60;16.33;;;;;;;;;;4956905;28;20929;-79
2024/03/22 07:00:47;;;;;;;26.60;15.30;;;;;;;;;;4957473;28;20970;-79
2024/03/22 07:03:14;;;;;;;30.10;14.10;;;;;;;;;;4957720;28;20559;-78
2024/03/22 07:05:39;;;;;;;31.10;15.73;;;;;;;;;;4957485;28;20417;-78
2024/03/22 07:08:06;;;;;;;25.50;14.90;;;;;;;;;;4955804;29;20447;-78
2024/03/22 07:10:32;;;;;;;24.47;15.10;;;;;;;;;;4956883;28;20447;-78
2024/03/22 07:12:58;;;;;;;30.17;15.80;;;;;;;;;;4957863;28;20464;-78
2024/03/22 07:15:24;;;;;;;31.63;16.00;;;;;;;;;;4956133;29;20436;-78
2024/03/22 07:17:51;;;;;;;29.00;15.07;;;;;;;;;;4957341;28;20936;-78
2024/03/22 07:20:17;;;;;;;27.53;14.10;;;;;;;;;;4957299;28;20419;-78
2024/03/22 07:22:43;;;;;;;29.27;15.63;;;;;;;;;;4957022;28;20423;-76
2024/03/22 07:25:09;;;;;;;29.00;15.27;;;;;;;;;;4956274;28;20447;-76
2024/03/22 07:27:35;;;;;;;36.83;16.03;;;;;;;;;;4956442;28;20416;-76
2024/03/22 07:30:01;;;;;;;26.17;16.40;;;;;;;;;;4955042;29;20981;-76
2024/03/22 07:32:27;;;;;;;30.80;15.90;;;;;;;;;;4957171;28;20674;-75
2024/03/22 07:34:53;;;;;;;26.17;13.73;;;;;;;;;;4956520;28;20401;-76
2024/03/22 07:37:20;;;;;;;25.67;14.77;;;;;;;;;;4954990;29;20416;-78
2024/03/22 07:39:46;;;;;;;26.70;14.60;;;;;;;;;;4956159;28;20421;-77
2024/03/22 07:42:12;;;;;;;23.63;14.07;;;;;;;;;;4958839;28;20448;-77
2024/03/22 07:44:38;;;;;;;28.20;14.63;;;;;;;;;;4956601;28;20776;-77
2024/03/22 07:47:04;;;;;;;28.87;14.57;;;;;;;;;;4954856;29;20513;-78
2024/03/22 07:49:31;;;;;;;22.07;13.03;;;;;;;;;;4956340;28;20416;-77
2024/03/22 07:51:57;;;;;;;27.67;14.20;;;;;;;;;;4956381;28;20433;-76
2024/03/22 07:54:23;;;;;;;30.10;14.20;;;;;;;;;;4956863;28;20467;-77
2024/03/22 07:56:49;;;;;;;28.73;14.50;;;;;;;;;;4954231;29;20421;-77
2024/03/22 07:59:15;;;;;;;19.93;13.80;;;;;;;;;;4955951;28;20464;-77
2024/03/22 08:01:41;;;;;;;25.53;13.40;;;;;;;;;;4955666;28;20495;-77
2024/03/22 08:04:07;;;;;;;28.33;16.37;;;;;;;;;;4954728;29;20429;-77
2024/03/22 08:06:33;;;;;;;18.90;12.10;;;;;;;;;;4953980;29;20436;-77
2024/03/22 08:08:59;;;;;;;28.87;15.23;;;;;;;;;;4954883;28;20585;-77
2024/03/22 08:11:25;;;;;;;22.07;13.87;;;;;;;;;;4955692;28;20436;-76
2024/03/22 08:13:51;;;;;;;24.43;14.27;;;;;;;;;;4954649;29;20495;-76
2024/03/22 08:16:17;;;;;;;24.27;13.20;;;;;;;;;;4956844;28;20413;-77
2024/03/22 08:18:43;;;;;;;24.80;13.20;;;;;;;;;;4956078;28;20448;-76
2024/03/22 08:21:09;;;;;;;25.50;13.77;;;;;;;;;;4957902;28;20433;-76
2024/03/22 08:23:35;;;;;;;28.10;14.03;;;;;;;;;;4958227;28;20773;-75
2024/03/22 08:26:01;;;;;;;23.17;13.13;;;;;;;;;;4955709;28;20443;-77
2024/03/22 08:28:27;;;;;;;22.83;13.27;;;;;;;;;;4952737;28;20825;-77
2024/03/22 08:30:53;;;;;;;19.03;12.70;;;;;;;;;;4946609;28;20484;-77
2024/03/22 08:33:19;;;;;;;27.57;14.63;;;;;;;;;;4935692;29;20496;-77
2024/03/22 08:35:45;;;;;;;25.33;13.27;;;;;;;;;;4934144;29;20492;-77
2024/03/22 08:38:14;;;;;;;24.90;14.50;;;;;;;;;;4935441;29;20401;-78
2024/03/22 08:40:40;;;;;;;26.00;13.60;;;;;;;;;;4933425;29;20473;-77
2024/03/22 08:43:09;;;;;;;31.43;14.93;;;;;;;;;;4935591;29;20414;-77
2024/03/22 08:45:37;;;;;;;21.13;13.23;;;;;;;;;;4936198;29;20441;-76
2024/03/22 08:48:03;;;;;;;26.47;12.57;;;;;;;;;;4935605;29;20662;-77
2024/03/22 08:50:29;;;;;;;21.93;13.07;;;;;;;;;;4935889;29;20438;-77
2024/03/22 08:52:55;;;;;;;32.13;13.63;;;;;;;;;;4935370;29;20560;-77
2024/03/22 08:55:21;;;;;;;32.17;13.60;;;;;;;;;;4934112;29;20879;-77
2024/03/22 08:57:47;;;;;;;23.60;12.00;;;;;;;;;;4935605;29;21150;-77
2024/03/22 09:00:13;;;;;;;25.67;13.30;;;;;;;;;;4935586;29;20496;-77
2024/03/22 09:02:39;;;;;;;26.10;12.73;;;;;;;;;;4935329;29;20990;-77
2024/03/22 09:05:05;;;;;;;21.80;12.87;;;;;;;;;;4935384;29;20417;-77
2024/03/22 09:07:31;;;;;;;22.50;11.60;;;;;;;;;;4933739;29;20429;-77
2024/03/22 09:09:57;;;;;;;19.30;11.57;;;;;;;;;;4935195;29;20418;-77
2024/03/22 09:12:23;;;;;;;21.60;12.80;;;;;;;;;;4933682;29;20469;-77
2024/03/22 09:14:49;;;;;;;21.70;12.40;;;;;;;;;;4934910;29;20410;-77
2024/03/22 09:17:15;;;;;;;23.90;12.40;;;;;;;;;;4933405;29;20418;-76
2024/03/22 09:19:41;;;;;;;23.60;12.20;;;;;;;;;;4935054;29;20440;-77
2024/03/22 09:22:07;;;;;;;24.10;11.40;;;;;;;;;;4933694;29;21000;-78
2024/03/22 09:24:33;;;;;;;22.63;12.43;;;;;;;;;;4934932;29;20917;-76
2024/03/22 09:26:59;;;;;;;20.53;11.70;;;;;;;;;;4934881;29;20460;-76
2024/03/22 09:29:25;;;;;;;21.73;12.23;;;;;;;;;;4934658;29;20905;-76
2024/03/22 09:31:51;;;;;;;18.70;11.37;;;;;;;;;;4934583;29;20814;-77
2024/03/22 09:34:17;;;;;;;18.07;10.40;;;;;;;;;;4934839;29;20826;-76
2024/03/22 09:36:43;;;;;;;23.57;11.30;;;;;;;;;;4934469;29;20457;-76
2024/03/22 09:39:09;;;;;;;22.60;10.93;;;;;;;;;;4935602;29;20417;-76
2024/03/22 09:41:40;;;;;;;20.17;11.47;;;;;;;;;;4934979;29;20437;-76
2024/03/22 09:44:06;;;;;;;21.47;10.33;;;;;;;;;;4934614;29;20418;-78
2024/03/22 09:46:32;;;;;;;18.70;10.37;;;;;;;;;;4934549;29;20500;-77
2024/03/22 09:48:59;;;;;;;12.90;8.33;;;;;;;;;;4935556;29;20413;-77
2024/03/22 09:51:25;;;;;;;16.27;8.20;;;;;;;;;;4933232;29;20924;-76
2024/03/22 09:53:52;;;;;;;14.63;8.90;;;;;;;;;;4935535;29;20513;-78
2024/03/22 09:56:21;;;;;;;15.93;8.90;;;;;;;;;;4935306;29;20410;-77
2024/03/22 09:58:47;;;;;;;15.10;8.60;;;;;;;;;;4934807;29;20418;-77
2024/03/22 10:01:13;;;;;;;13.40;7.67;;;;;;;;;;4934652;29;20446;-77
2024/03/22 10:03:39;;;;;;;13.60;7.83;;;;;;;;;;4934726;29;20417;-77
2024/03/22 10:06:05;;;;;;;15.53;8.83;;;;;;;;;;4934788;29;20759;-77
2024/03/22 10:08:32;;;;;;;14.37;9.23;;;;;;;;;;4934076;29;20434;-77
2024/03/22 10:10:58;;;;;;;17.53;8.60;;;;;;;;;;4934352;29;20433;-76
2024/03/22 10:13:24;;;;;;;14.63;8.30;;;;;;;;;;4934446;29;20943;-76
2024/03/22 10:15:49;;;;;;;13.87;7.57;;;;;;;;;;4934344;29;20414;-77
2024/03/22 10:18:15;;;;;;;9.97;6.03;;;;;;;;;;4934483;29;20917;-76
2024/03/22 10:20:41;;;;;;;7.50;5.00;;;;;;;;;;4934559;29;20841;-76
2024/03/22 10:23:08;;;;;;;8.80;4.73;;;;;;;;;;4935316;29;20409;-76
2024/03/22 10:25:35;;;;;;;11.43;5.10;;;;;;;;;;4932608;29;20430;-76
2024/03/22 10:28:01;;;;;;;6.40;4.07;;;;;;;;;;4934150;29;20818;-75
2024/03/22 10:30:28;;;;;;;10.20;4.90;;;;;;;;;;4938970;29;20454;-76
2024/03/22 10:32:54;;;;;;;12.17;5.50;;;;;;;;;;4947859;28;20488;-77
2024/03/22 10:35:22;;;;;;;10.07;5.70;;;;;;;;;;4954706;29;20458;-77
2024/03/22 10:37:48;;;;;;;9.67;4.77;;;;;;;;;;4957044;29;20445;-77
2024/03/22 10:40:14;;;;;;;9.73;4.90;;;;;;;;;;4956145;28;20511;-76
2024/03/22 10:42:41;;;;;;;8.07;4.50;;;;;;;;;;4956640;29;20916;-77
2024/03/22 10:45:07;;;;;;;8.17;5.20;;;;;;;;;;4956884;29;20417;-77
2024/03/22 10:47:34;;;;;;;11.43;5.77;;;;;;;;;;4955384;29;20439;-76
2024/03/22 10:50:10;;;;;;;9.50;6.00;;;;;;;;;;4955408;29;20432;-76
2024/03/22 10:52:39;;;;;;;11.37;5.70;;;;;;;;;;4955352;29;20460;-76
2024/03/22 10:55:11;;;;;;;10.97;5.60;;;;;;;;;;4960009;29;20412;-77
2024/03/22 10:57:38;;;;;;;17.53;5.40;;;;;;;;;;4958350;29;20475;-77
2024/03/22 11:00:09;;;;;;;13.10;6.20;;;;;;;;;;4958001;29;20419;-75
2024/03/22 11:02:35;;;;;;;20.57;5.87;;;;;;;;;;4956413;29;20432;-76
2024/03/22 11:05:01;;;;;;;6.90;4.90;;;;;;;;;;4957762;29;20423;-77
2024/03/22 11:07:30;;;;;;;9.47;5.50;;;;;;;;;;4956770;29;20409;-77
2024/03/22 11:09:57;;;;;;;10.30;5.73;;;;;;;;;;4957105;29;20504;-77
2024/03/22 11:12:25;;;;;;;10.70;5.10;;;;;;;;;;4957172;28;20476;-76
2024/03/22 11:14:51;;;;;;;8.87;5.17;;;;;;;;;;4955910;29;20429;-77
2024/03/22 11:17:17;;;;;;;11.00;5.17;;;;;;;;;;4957090;28;20829;-78
2024/03/22 11:19:43;;;;;;;8.83;6.10;;;;;;;;;;4956604;29;20451;-77
2024/03/22 11:22:11;;;;;;;9.27;5.50;;;;;;;;;;4956739;29;20429;-77
2024/03/22 11:24:38;;;;;;;10.57;5.20;;;;;;;;;;4955848;29;20951;-76
2024/03/22 11:27:04;;;;;;;7.47;5.27;;;;;;;;;;4954582;29;20445;-77
2024/03/22 11:29:30;;;;;;;9.33;5.20;;;;;;;;;;4956290;29;20424;-76
2024/03/22 11:31:56;;;;;;;14.13;6.27;;;;;;;;;;4956126;29;20440;-77
2024/03/22 11:34:22;;;;;;;11.43;5.63;;;;;;;;;;4956673;29;20409;-77
2024/03/22 11:36:49;;;;;;;8.30;4.57;;;;;;;;;;4955884;29;20452;-77
2024/03/22 11:39:15;;;;;;;12.93;6.10;;;;;;;;;;4955978;28;20408;-76
2024/03/22 11:41:41;;;;;;;11.63;6.23;;;;;;;;;;4955993;29;20516;-76
2024/03/22 11:44:07;;;;;;;8.70;5.60;;;;;;;;;;4956195;28;20423;-76
2024/03/22 11:46:34;;;;;;;16.50;6.47;;;;;;;;;;4955884;29;20401;-76
2024/03/22 11:49:00;;;;;;;9.77;6.30;;;;;;;;;;4956273;29;20471;-76
2024/03/22 11:51:25;;;;;;;14.67;5.70;;;;;;;;;;4955792;29;20639;-76
2024/03/22 11:53:53;;;;;;;12.93;5.53;;;;;;;;;;4955152;29;20974;-76
2024/03/22 11:56:20;;;;;;;10.00;6.17;;;;;;;;;;4954608;29;20423;-76
2024/03/22 11:58:47;;;;;;;10.83;5.43;;;;;;;;;;4955752;29;20778;-76
2024/03/22 12:01:14;;;;;;;14.30;6.40;;;;;;;;;;4955812;28;20543;-76
2024/03/22 12:03:40;;;;;;;13.73;5.33;;;;;;;;;;4956350;29;20412;-76
2024/03/22 12:06:06;;;;;;;8.50;5.53;;;;;;;;;;4956239;29;20984;-76
2024/03/22 12:08:32;;;;;;;7.80;5.20;;;;;;;;;;4955685;29;20807;-76
2024/03/22 12:10:58;;;;;;;7.37;5.53;;;;;;;;;;4955905;29;20436;-76
2024/03/22 12:13:24;;;;;;;9.90;5.70;;;;;;;;;;4955396;28;20475;-76
2024/03/22 12:15:52;;;;;;;5.83;4.70;;;;;;;;;;4985934;23;20497;-74
2024/03/22 12:18:17;;;;;;;13.83;5.97;;;;;;;;;;4954149;29;20504;-74
2024/03/22 12:20:43;;;;;;;6.50;4.77;;;;;;;;;;4955173;28;20440;-74
2024/03/22 12:23:09;;;;;;;10.40;5.03;;;;;;;;;;4955117;28;20460;-74
2024/03/22 12:25:35;;;;;;;9.93;5.10;;;;;;;;;;4955097;28;20432;-74
2024/03/22 12:28:01;;;;;;;10.20;5.60;;;;;;;;;;4955254;28;20424;-74
2024/03/22 12:30:27;;;;;;;9.20;4.67;;;;;;;;;;4953236;28;20445;-75
2024/03/22 12:32:53;;;;;;;13.53;6.00;;;;;;;;;;4947357;29;20834;-74
2024/03/22 12:35:19;;;;;;;12.43;5.10;;;;;;;;;;4953692;29;20432;-74
2024/03/22 12:37:45;;;;;;;6.63;4.37;;;;;;;;;;4954084;29;20467;-74
2024/03/22 12:40:11;;;;;;;7.50;4.57;;;;;;;;;;4954811;29;20412;-74
2024/03/22 12:42:37;;;;;;;7.47;4.27;;;;;;;;;;4953812;29;20424;-74
2024/03/22 12:45:03;;;;;;;8.50;5.00;;;;;;;;;;4954664;29;20433;-74
2024/03/22 12:47:29;;;;;;;14.13;5.70;;;;;;;;;;4954928;29;20432;-75
2024/03/22 12:49:55;;;;;;;7.83;4.80;;;;;;;;;;4954701;29;20417;-75
2024/03/22 12:52:21;;;;;;;11.40;5.30;;;;;;;;;;4954564;29;20558;-74
2024/03/22 12:54:47;;;;;;;13.03;5.00;;;;;;;;;;4953954;28;20972;-75
2024/03/22 12:57:13;;;;;;;8.67;5.30;;;;;;;;;;4954430;29;20409;-75
2024/03/22 12:59:39;;;;;;;9.20;4.47;;;;;;;;;;4953373;29;20516;-75
2024/03/22 13:02:05;;;;;;;8.20;4.93;;;;;;;;;;4954458;29;20440;-74
2024/03/22 13:04:31;;;;;;;11.70;5.50;;;;;;;;;;4954553;29;20413;-75
2024/03/22 13:06:57;;;;;;;8.57;4.90;;;;;;;;;;4954370;29;20970;-75
2024/03/22 13:09:24;;;;;;;7.10;4.70;;;;;;;;;;4954404;29;20404;-74
2024/03/22 13:11:49;;;;;;;9.83;5.30;;;;;;;;;;4954368;29;20476;-75
2024/03/22 13:14:16;;;;;;;7.50;5.00;;;;;;;;;;4954195;29;20468;-75
2024/03/22 13:16:42;;;;;;;10.67;4.57;;;;;;;;;;4953948;29;20447;-74
2024/03/22 13:19:12;;;;;;;13.33;5.43;;;;;;;;;;4953987;29;20417;-74
2024/03/22 13:21:38;;;;;;;14.93;6.00;;;;;;;;;;4952660;29;20952;-75
2024/03/22 13:24:03;;;;;;;11.53;5.50;;;;;;;;;;4953927;29;20463;-74
2024/03/22 13:26:29;;;;;;;9.40;5.10;;;;;;;;;;4952621;29;20459;-75
2024/03/22 13:28:55;;;;;;;9.37;5.80;;;;;;;;;;4954007;29;20901;-74
2024/03/22 13:31:21;;;;;;;9.07;5.50;;;;;;;;;;4953992;29;20425;-74
2024/03/22 13:33:47;;;;;;;7.00;5.20;;;;;;;;;;4954072;29;20618;-74
2024/03/22 13:36:14;;;;;;;10.83;5.90;;;;;;;;;;4953823;29;20512;-74
2024/03/22 13:38:39;;;;;;;10.23;4.90;;;;;;;;;;4953839;29;20424;-74
2024/03/22 13:41:06;;;;;;;6.70;4.50;;;;;;;;;;4953813;29;20412;-74
2024/03/22 13:43:32;;;;;;;13.67;5.73;;;;;;;;;;4952474;29;20806;-74
2024/03/22 13:45:58;;;;;;;9.77;4.60;;;;;;;;;;4954241;29;20535;-75
2024/03/22 13:48:24;;;;;;;10.43;5.20;;;;;;;;;;4952249;29;20932;-75
2024/03/22 13:50:54;;;;;;;6.73;4.30;;;;;;;;;;4953888;29;20524;-73
2024/03/22 13:53:23;;;;;;;8.57;4.80;;;;;;;;;;4953619;29;20492;-75
2024/03/22 13:55:49;;;;;;;9.50;4.57;;;;;;;;;;4953685;29;20440;-74
2024/03/22 13:58:16;;;;;;;14.47;5.20;;;;;;;;;;4953423;29;20413;-74
2024/03/22 14:00:42;;;;;;;8.43;5.00;;;;;;;;;;4953672;29;20417;-73
2024/03/22 14:03:08;;;;;;;8.30;4.87;;;;;;;;;;4955952;29;20487;-73
2024/03/22 14:05:34;;;;;;;12.53;6.30;;;;;;;;;;4962542;28;20628;-73
2024/03/22 14:08:00;;;;;;;7.63;4.87;;;;;;;;;;4962799;29;20420;-73
2024/03/22 14:10:31;;;;;;;12.27;5.47;;;;;;;;;;4959158;29;20416;-72
2024/03/22 14:12:57;;;;;;;13.67;5.43;;;;;;;;;;4960960;29;20455;-74
2024/03/22 14:15:31;;;;;;;10.53;4.53;;;;;;;;;;4963906;29;20507;-74
2024/03/22 14:17:57;;;;;;;8.87;5.57;;;;;;;;;;4959248;29;20412;-75
2024/03/22 14:20:24;;;;;;;11.60;5.23;;;;;;;;;;4965867;29;20401;-73
2024/03/22 14:22:50;;;;;;;6.10;4.43;;;;;;;;;;4976316;29;20491;-75
2024/03/22 14:25:16;;;;;;;10.70;5.90;;;;;;;;;;4969199;29;20428;-75
2024/03/22 14:27:45;;;;;;;11.93;4.80;;;;;;;;;;4959404;29;20452;-75
2024/03/22 14:30:12;;;;;;;10.00;4.63;;;;;;;;;;4958195;29;20895;-75
2024/03/22 14:32:38;;;;;;;8.63;5.40;;;;;;;;;;4947566;29;20476;-75
2024/03/22 14:35:05;;;;;;;9.90;4.50;;;;;;;;;;4942000;29;20441;-75
2024/03/22 14:37:31;;;;;;;11.20;4.87;;;;;;;;;;4937126;29;20441;-75
2024/03/22 14:39:58;;;;;;;9.37;4.97;;;;;;;;;;4938042;29;21002;-76
2024/03/22 14:42:24;;;;;;;5.03;3.30;;;;;;;;;;4936789;29;20794;-75
2024/03/22 14:44:50;;;;;;;7.63;3.70;;;;;;;;;;4937783;29;20527;-75
2024/03/22 14:47:16;;;;;;;7.40;3.40;;;;;;;;;;4937187;29;20508;-75
2024/03/22 14:49:42;;;;;;;7.90;3.00;;;;;;;;;;4936045;29;20429;-75
2024/03/22 14:52:09;;;;;;;4.40;2.80;;;;;;;;;;4937908;29;20413;-75
2024/03/22 14:54:35;;;;;;;6.90;3.13;;;;;;;;;;4936440;29;20422;-75
2024/03/22 14:57:01;;;;;;;5.70;2.40;;;;;;;;;;4937357;29;20402;-76
2024/03/22 14:59:30;;;;;;;11.53;3.20;;;;;;;;;;4937447;29;20464;-76
2024/03/22 15:01:56;;;;;;;6.87;3.17;;;;;;;;;;4937245;29;20926;-75
2024/03/22 15:04:22;;;;;;;5.63;2.90;;;;;;;;;;4937313;29;20889;-74
2024/03/22 15:06:50;;;;;;;6.33;3.23;;;;;;;;;;4937406;29;20413;-76
2024/03/22 15:09:18;;;;;;;5.20;2.90;;;;;;;;;;4937051;29;20786;-75
2024/03/22 15:11:44;;;;;;;3.50;2.53;;;;;;;;;;4937334;29;20899;-75
2024/03/22 15:14:10;;;;;;;4.70;2.63;;;;;;;;;;4937307;29;20550;-75
2024/03/22 15:16:36;;;;;;;6.33;2.30;;;;;;;;;;4937235;29;20452;-75
2024/03/22 15:19:02;;;;;;;6.43;3.17;;;;;;;;;;4936820;29;20413;-75
2024/03/22 15:21:28;;;;;;;5.53;2.93;;;;;;;;;;4936979;29;20448;-75
2024/03/22 15:23:54;;;;;;;3.87;2.60;;;;;;;;;;4937028;29;20417;-75
2024/03/22 15:26:21;;;;;;;7.20;3.30;;;;;;;;;;4937053;29;20453;-76
2024/03/22 15:28:50;;;;;;;6.07;2.80;;;;;;;;;;4936797;29;20430;-74
2024/03/22 15:31:16;;;;;;;4.20;2.70;;;;;;;;;;4935730;29;20422;-75
2024/03/22 15:33:43;;;;;;;7.50;3.10;;;;;;;;;;4936870;29;20484;-75
2024/03/22 15:36:09;;;;;;;6.57;3.33;;;;;;;;;;4936901;29;20437;-74
2024/03/22 15:38:35;;;;;;;5.80;3.03;;;;;;;;;;4936586;29;20413;-76
2024/03/22 15:41:00;;;;;;;7.03;3.00;;;;;;;;;;4936910;29;20414;-75
2024/03/22 15:43:26;;;;;;;5.47;2.70;;;;;;;;;;4936579;29;20413;-75
2024/03/22 15:45:52;;;;;;;5.30;3.53;;;;;;;;;;4936736;29;20433;-75
2024/03/22 15:48:21;;;;;;;4.83;3.60;;;;;;;;;;4936858;29;20422;-75
2024/03/22 15:50:47;;;;;;;7.07;3.50;;;;;;;;;;4937019;29;20445;-75
2024/03/22 15:53:13;;;;;;;10.13;4.20;;;;;;;;;;4936821;29;20458;-76
2024/03/22 15:55:39;;;;;;;11.90;3.97;;;;;;;;;;4935032;29;20473;-75
2024/03/22 15:58:05;;;;;;;5.23;3.37;;;;;;;;;;4936119;29;20409;-75
2024/03/22 16:00:33;;;;;;;7.67;3.90;;;;;;;;;;4936305;29;20425;-74
2024/03/22 16:02:59;;;;;;;6.53;3.30;;;;;;;;;;4934048;29;20434;-74
2024/03/22 16:05:25;;;;;;;6.30;3.10;;;;;;;;;;4940099;29;20438;-75
2024/03/22 16:07:51;;;;;;;8.37;3.23;;;;;;;;;;4936164;29;20465;-77
2024/03/22 16:10:17;;;;;;;7.80;3.13;;;;;;;;;;4941694;29;20420;-76
2024/03/22 16:12:43;;;;;;;10.70;4.27;;;;;;;;;;4955512;29;20460;-76
2024/03/22 16:15:09;;;;;;;4.10;3.30;;;;;;;;;;4954306;29;20456;-77
2024/03/22 16:17:35;;;;;;;8.47;4.60;;;;;;;;;;4945377;29;20413;-79
2024/03/22 16:20:01;;;;;;;10.67;4.17;;;;;;;;;;4937270;29;20473;-75
2024/03/22 16:22:27;;;;;;;6.93;3.90;;;;;;;;;;4940557;29;20445;-78
2024/03/22 16:24:53;;;;;;;4.97;3.00;;;;;;;;;;4957701;29;20441;-77
2024/03/22 16:27:21;;;;;;;5.87;3.70;;;;;;;;;;4950913;29;20516;-77
2024/03/22 16:29:47;;;;;;;10.97;4.10;;;;;;;;;;4943091;28;20421;-77
2024/03/22 16:32:13;;;;;;;7.13;3.30;;;;;;;;;;4936132;29;20453;-76
2024/03/22 16:34:39;;;;;;;5.30;3.47;;;;;;;;;;4935880;29;20437;-76
2024/03/22 16:37:05;;;;;;;7.70;3.60;;;;;;;;;;4935644;29;20496;-77
2024/03/22 16:39:32;;;;;;;8.50;3.40;;;;;;;;;;4945532;29;20849;-77
2024/03/22 16:41:57;;;;;;;6.67;3.80;;;;;;;;;;4954667;29;20413;-77
2024/03/22 16:44:23;;;;;;;8.50;4.57;;;;;;;;;;4954794;29;20951;-76
2024/03/22 16:46:49;;;;;;;7.07;3.67;;;;;;;;;;4936366;29;20428;-77
2024/03/22 16:49:15;;;;;;;11.37;4.07;;;;;;;;;;4935660;29;20418;-77
2024/03/22 16:51:41;;;;;;;6.13;3.60;;;;;;;;;;4936740;29;20449;-77
2024/03/22 16:54:08;;;;;;;7.83;4.10;;;;;;;;;;4935713;29;20468;-77
2024/03/22 16:56:35;;;;;;;9.00;4.40;;;;;;;;;;4935181;29;21111;-77
2024/03/22 16:59:01;;;;;;;6.40;4.20;;;;;;;;;;4935479;29;20410;-75
2024/03/22 17:01:27;;;;;;;8.33;4.97;;;;;;;;;;4935941;29;20449;-75
2024/03/22 17:03:53;;;;;;;7.60;4.40;;;;;;;;;;4935363;29;20414;-76
2024/03/22 17:06:20;;;;;;;9.70;3.83;;;;;;;;;;4935798;29;20445;-76
2024/03/22 17:08:46;;;;;;;7.33;4.47;;;;;;;;;;4944063;29;20409;-76
2024/03/22 17:11:12;;;;;;;11.80;4.60;;;;;;;;;;4936797;29;20416;-76
2024/03/22 17:13:38;;;;;;;7.43;4.60;;;;;;;;;;4935908;29;20531;-75
2024/03/22 17:16:04;;;;;;;6.40;4.20;;;;;;;;;;4935144;29;20457;-76
2024/03/22 17:18:30;;;;;;;8.10;4.90;;;;;;;;;;4935633;29;20421;-77
2024/03/22 17:20:56;;;;;;;8.87;4.60;;;;;;;;;;4951433;29;20553;-76
2024/03/22 17:23:22;;;;;;;10.80;5.83;;;;;;;;;;4953886;29;20417;-76
2024/03/22 17:25:48;;;;;;;9.10;4.00;;;;;;;;;;4953748;29;20933;-75
2024/03/22 17:28:14;;;;;;;7.17;3.80;;;;;;;;;;4953137;29;20523;-76
2024/03/22 17:30:45;;;;;;;9.10;4.00;;;;;;;;;;4953392;29;20475;-76
2024/03/22 17:33:10;;;;;;;10.30;4.77;;;;;;;;;;4951522;29;20495;-76
2024/03/22 17:35:37;;;;;;;6.70;3.70;;;;;;;;;;4953335;29;20428;-76
2024/03/22 17:38:07;;;;;;;6.53;4.00;;;;;;;;;;4952123;29;20420;-76
2024/03/22 17:40:34;;;;;;;10.30;3.93;;;;;;;;;;4953654;28;20497;-76
2024/03/22 17:43:00;;;;;;;7.23;3.60;;;;;;;;;;4953812;29;20471;-76
2024/03/22 17:45:26;;;;;;;18.53;4.20;;;;;;;;;;4953886;29;20444;-76
2024/03/22 17:47:52;;;;;;;8.77;4.50;;;;;;;;;;4953616;29;20424;-77
2024/03/22 17:50:18;;;;;;;9.17;4.80;;;;;;;;;;4953920;29;20423;-76
2024/03/22 17:52:44;;;;;;;10.27;5.57;;;;;;;;;;4953818;29;20464;-76
2024/03/22 17:55:10;;;;;;;13.83;6.30;;;;;;;;;;4948962;29;20750;-76
2024/03/22 17:57:36;;;;;;;8.60;4.90;;;;;;;;;;4934787;29;20933;-77
2024/03/22 18:00:04;;;;;;;12.93;4.40;;;;;;;;;;4934585;29;20996;-77
2024/03/22 18:02:30;;;;;;;7.97;4.60;;;;;;;;;;4934369;29;20446;-77
2024/03/22 18:04:56;;;;;;;9.47;4.90;;;;;;;;;;4933039;29;20465;-76
2024/03/22 18:07:23;;;;;;;12.93;6.37;;;;;;;;;;4934067;29;20418;-77
2024/03/22 18:09:49;;;;;;;10.37;5.33;;;;;;;;;;4934545;29;20417;-77
2024/03/22 18:12:15;;;;;;;11.93;6.13;;;;;;;;;;4937168;29;20992;-77
2024/03/22 18:14:41;;;;;;;11.13;6.47;;;;;;;;;;4956103;23;20597;-74
2024/03/22 18:17:07;;;;;;;13.40;6.73;;;;;;;;;;4953370;29;20804;-75
2024/03/22 18:19:33;;;;;;;18.07;6.77;;;;;;;;;;4939351;28;20493;-75
2024/03/22 18:21:59;;;;;;;15.20;5.90;;;;;;;;;;4938734;29;20410;-74
2024/03/22 18:24:25;;;;;;;11.37;5.47;;;;;;;;;;4937705;29;20504;-75
2024/03/22 18:26:51;;;;;;;14.50;5.77;;;;;;;;;;4944670;29;20438;-75
2024/03/22 18:29:17;;;;;;;12.27;5.43;;;;;;;;;;4946864;29;20480;-75
2024/03/22 18:31:43;;;;;;;14.43;4.90;;;;;;;;;;4937471;29;20504;-76
2024/03/22 18:34:09;;;;;;;10.60;4.80;;;;;;;;;;4944943;29;20477;-75
2024/03/22 18:36:35;;;;;;;8.20;4.00;;;;;;;;;;4938333;29;20438;-75
2024/03/22 18:39:01;;;;;;;14.27;5.33;;;;;;;;;;4937855;29;20806;-75
2024/03/22 18:41:27;;;;;;;11.60;4.60;;;;;;;;;;4937765;29;20500;-75
2024/03/22 18:43:53;;;;;;;13.20;6.03;;;;;;;;;;4936167;29;20948;-75
2024/03/22 18:46:19;;;;;;;9.37;5.93;;;;;;;;;;4936181;29;20508;-76
2024/03/22 18:48:45;;;;;;;10.00;5.00;;;;;;;;;;4936405;29;20413;-75
2024/03/22 18:51:13;;;;;;;14.50;6.80;;;;;;;;;;4936029;29;20414;-75
2024/03/22 18:53:39;;;;;;;14.23;8.80;;;;;;;;;;4937273;29;20960;-74
2024/03/22 18:56:05;;;;;;;7.00;4.80;;;;;;;;;;4938759;29;20444;-75
2024/03/22 18:58:31;;;;;;;14.93;5.80;;;;;;;;;;4938716;29;20406;-75
2024/03/22 19:00:57;;;;;;;17.27;7.27;;;;;;;;;;4939048;29;20780;-74
2024/03/22 19:03:23;;;;;;;10.50;6.60;;;;;;;;;;4937688;29;20418;-75
2024/03/22 19:05:49;;;;;;;18.33;8.13;;;;;;;;;;4938689;29;20488;-74
2024/03/22 19:08:15;;;;;;;13.00;7.80;;;;;;;;;;4937346;29;20421;-76
2024/03/22 19:10:41;;;;;;;19.20;7.57;;;;;;;;;;4944266;29;20429;-74
2024/03/22 19:13:07;;;;;;;13.90;7.77;;;;;;;;;;4949043;29;20461;-74
2024/03/22 19:15:34;;;;;;;20.43;8.90;;;;;;;;;;4943173;29;20464;-75
2024/03/22 19:18:02;;;;;;;18.80;7.93;;;;;;;;;;4942074;29;20485;-75
2024/03/22 19:20:28;;;;;;;14.43;8.27;;;;;;;;;;4940889;29;20443;-74
2024/03/22 19:22:54;;;;;;;22.00;8.40;;;;;;;;;;4961944;29;20425;-74
2024/03/22 19:25:21;;;;;;;13.40;7.13;;;;;;;;;;4972662;29;20442;-75
2024/03/22 19:27:47;;;;;;;14.70;8.10;;;;;;;;;;4964698;28;20428;-74
2024/03/22 19:30:13;;;;;;;17.90;9.43;;;;;;;;;;4963517;29;20416;-74
2024/03/22 19:32:39;;;;;;;15.00;8.33;;;;;;;;;;4962576;29;20533;-75
2024/03/22 19:35:05;;;;;;;17.00;8.50;;;;;;;;;;4961809;29;20873;-75
2024/03/22 19:37:31;;;;;;;16.50;9.93;;;;;;;;;;4963259;29;20807;-75
2024/03/22 19:39:57;;;;;;;16.13;9.67;;;;;;;;;;4964459;29;20408;-74
2024/03/22 19:42:23;;;;;;;18.40;8.67;;;;;;;;;;4964642;29;20420;-75
2024/03/22 19:44:49;;;;;;;14.03;8.20;;;;;;;;;;4963251;29;20409;-75
2024/03/22 19:47:15;;;;;;;17.80;9.80;;;;;;;;;;4964278;29;20725;-75
2024/03/22 19:49:41;;;;;;;21.47;9.77;;;;;;;;;;4944925;29;20432;-75
2024/03/22 19:52:08;;;;;;;26.67;11.23;;;;;;;;;;4938216;29;20425;-75
2024/03/22 19:54:34;;;;;;;22.83;9.83;;;;;;;;;;4937677;29;20446;-74
2024/03/22 19:56:59;;;;;;;19.90;9.00;;;;;;;;;;4937295;29;20476;-75
2024/03/22 19:59:26;;;;;;;15.37;8.50;;;;;;;;;;4937337;29;20782;-75
2024/03/22 20:01:53;;;;;;;20.47;9.20;;;;;;;;;;4937768;29;20436;-75
2024/03/22 20:04:19;;;;;;;21.63;11.87;;;;;;;;;;4940066;29;20449;-75
2024/03/22 20:06:45;;;;;;;22.87;10.63;;;;;;;;;;4955947;29;20464;-75
2024/03/22 20:09:11;;;;;;;23.27;10.20;;;;;;;;;;4955158;29;20421;-75
2024/03/22 20:11:39;;;;;;;15.73;9.50;;;;;;;;;;4956273;28;20424;-74
2024/03/22 20:14:05;;;;;;;21.47;9.90;;;;;;;;;;4956262;29;20464;-75
2024/03/22 20:16:31;;;;;;;18.67;9.10;;;;;;;;;;4955986;29;20595;-74
2024/03/22 20:18:57;;;;;;;22.87;10.23;;;;;;;;;;4956526;29;20500;-76
2024/03/22 20:21:23;;;;;;;15.97;9.70;;;;;;;;;;4955901;29;20414;-75
2024/03/22 20:23:49;;;;;;;16.50;8.83;;;;;;;;;;4955664;29;20425;-74
2024/03/22 20:26:15;;;;;;;19.80;9.37;;;;;;;;;;4955941;29;20444;-75